Airfield :
LOGIN :

Register | Disclaimer

   EN    FR    IT 

 










Legend :    VFR   Marginal VFR   IFR   Intensive IFR   Very Intensive IFR
Visi :
Ceiling :
>= 8 km
>= 3000ft
5 to 8 km
1000 to 3000 ft
1500m to 5 km
500 to 1000 ft
800 to 1500m
200 to 500 ft
< 800m
< 200 ft
Symbols :   Thunderstorms  Fog  Heavy snow  Heavy precipitations  Wind > 20 kt
SIGMETs :     Misc.  Thunderstorms  Icing  Turbulence  Mountain Waves  Volcanic Ashes







- Airport Elevation : 390 ft
- IATA code : NQY
- Download approach charts


EGHQ - Newquay

CURRENT METAR :
  • 301420Z 16018KT 9999 FEW040 14/10 Q1013

EXPIRED METARs :
  • 301350Z 16018KT 9999 FEW040 14/10 Q1014
  • 301320Z 16016KT 9999 FEW040 13/10 Q1014
  • 301250Z 17016KT 9999 FEW030 13/09 Q1014
  • 301220Z 16016KT 9999 FEW030 13/10 Q1015
  • 301150Z 16015KT 9999 FEW030 13/10 Q1015
  • 301120Z 17017KT 9999 FEW016 13/10 Q1015

TAF TAF EGHQ
Valid from the 30 at 12:00 until the 30 at 21:00 UTC


301100Z 3012/3021 17015KT 9999 SCT015
PROB30
TEMPO 3012/3021 17018G28KT 6000 SHRA BKN009
No reported NOTAMs for that airfield.



MET'MAP, your aeronautical weather chart ! - Copyright ORBIFLY December 2007 - Disclaimer

ORBIFLY MET'MAP TEAM :

Programming & Development : Alexandra Zaïnal
Concept & Development : Baudouin d'Aumeries
Co-Development & Prog : Marc-Olivier Méhu
Technical & hardware support : Manuel Goepfert

Contact : metmap@orbifly.com




SOURCES & CREDITS :

   NOAA